createdAt,value
2022-09-05T06:14:47.974Z,3.78
2022-09-05T06:15:05.111Z,4.10
2022-09-05T06:17:16.283Z,3.63
2022-09-05T06:22:08.619Z,3.70
2022-09-05T06:24:04.724Z,3.63
2022-09-05T06:27:33.384Z,3.80
2022-09-05T06:30:23.739Z,3.72
2022-09-05T06:33:28.364Z,3.73
2022-09-05T06:36:31.107Z,3.60
2022-09-05T06:39:48.660Z,3.63
2022-09-05T06:42:48.292Z,3.85
2022-09-05T06:45:58.619Z,3.75
2022-09-05T06:49:32.065Z,3.83
2022-09-05T06:52:06.821Z,3.50
2022-09-05T06:55:12.460Z,3.42
2022-09-05T06:58:19.760Z,3.63
2022-09-05T07:01:08.882Z,3.25
2022-09-05T07:04:51.465Z,3.67
2022-09-05T07:07:46.222Z,3.30
2022-09-05T07:10:39.196Z,3.78
2022-09-05T07:13:44.558Z,3.38
2022-09-05T07:16:42.318Z,2.92
2022-09-05T07:19:52.934Z,3.53
2022-09-05T07:22:50.464Z,3.47
2022-09-05T07:25:37.411Z,3.40
2022-09-05T07:28:29.403Z,3.53
2022-09-05T07:31:37.097Z,3.13
2022-09-05T07:34:32.748Z,3.07
2022-09-05T07:37:25.286Z,3.45
2022-09-05T07:40:25.328Z,3.05
2022-09-05T07:43:18.995Z,3.53
2022-09-05T07:46:14.878Z,3.30
2022-09-05T07:49:09.807Z,3.27
2022-09-05T07:56:49.543Z,3.40
2022-09-05T07:57:08.833Z,2.80
2022-09-05T07:58:49.728Z,3.63
2022-09-05T08:01:40.304Z,3.28
2022-09-05T08:04:35.079Z,3.47
2022-09-05T08:07:48.903Z,3.25
2022-09-05T08:11:22.123Z,3.65
2022-09-05T08:14:38.455Z,3.15
2022-09-05T08:17:30.390Z,3.00
2022-09-05T08:20:15.793Z,3.50
2022-09-05T08:23:29.504Z,3.78
2022-09-05T08:26:33.227Z,3.22
2022-09-05T08:29:31.922Z,3.45
2022-09-05T08:32:41.755Z,3.30
2022-09-05T08:35:38.939Z,3.20
2022-09-05T08:38:26.099Z,3.60
2022-09-05T08:41:50.190Z,3.28
2022-09-05T08:46:47.586Z,3.30
2022-09-05T08:48:22.219Z,3.25
2022-09-05T08:51:25.959Z,3.40
2022-09-05T08:54:18.426Z,3.30
2022-09-05T08:57:22.168Z,3.65
2022-09-05T09:00:20.409Z,3.30
2022-09-05T09:03:32.145Z,3.17
2022-09-05T09:06:21.758Z,3.20
2022-09-05T09:09:13.614Z,3.50
2022-09-05T09:12:08.871Z,3.60
2022-09-05T09:14:57.637Z,3.78
2022-09-05T09:17:45.513Z,3.30
2022-09-05T09:20:48.659Z,3.80
2022-09-05T09:23:49.718Z,3.55
2022-09-05T09:26:49.300Z,3.78
2022-09-05T09:29:39.696Z,4.20
2022-09-05T09:32:24.868Z,3.78
2022-09-05T09:35:13.056Z,3.67
2022-09-05T09:38:04.020Z,3.65
2022-09-05T09:41:12.448Z,3.80
2022-09-05T09:44:22.480Z,3.50
2022-09-05T09:47:14.199Z,3.10
2022-09-05T09:50:02.339Z,3.23
2022-09-05T09:53:12.992Z,3.30
2022-09-05T09:56:19.881Z,3.28
2022-09-05T09:59:13.707Z,3.13
2022-09-05T10:04:20.374Z,3.22
2022-09-05T10:10:36.454Z,3.30
2022-09-05T10:11:00.443Z,3.22
2022-09-05T10:12:52.067Z,2.90
2022-09-05T10:16:22.185Z,3.20
2022-09-05T10:20:09.846Z,2.75
2022-09-05T10:23:11.598Z,3.20
2022-09-05T10:26:16.734Z,3.10
2022-09-05T10:29:35.237Z,2.90
2022-09-05T10:35:11.674Z,2.90
2022-09-05T10:35:51.863Z,3.00
2022-09-05T10:38:46.472Z,2.97
2022-09-05T10:42:10.752Z,3.05
2022-09-05T10:44:57.345Z,2.80
2022-09-05T10:47:53.312Z,3.00
2022-09-05T10:50:44.622Z,2.90
2022-09-05T10:54:04.045Z,2.73
2022-09-05T10:57:05.975Z,2.47
2022-09-05T11:02:20.361Z,3.10
2022-09-05T11:03:01.516Z,2.80
2022-09-05T11:05:57.189Z,2.90
2022-09-05T11:08:59.778Z,3.10
2022-09-05T11:12:00.089Z,3.17
2022-09-05T11:14:56.300Z,2.72
2022-09-05T11:17:56.095Z,2.90
2022-09-05T11:21:01.186Z,2.80
2022-09-05T11:24:10.819Z,2.77
2022-09-05T11:27:23.681Z,2.70
2022-09-05T11:30:28.141Z,2.80
2022-09-05T11:39:47.883Z,2.85
2022-09-05T11:39:59.338Z,2.70
2022-09-05T11:41:11.542Z,2.63
2022-09-05T11:44:25.501Z,2.70
2022-09-05T11:47:44.587Z,2.78
2022-09-05T11:50:29.780Z,2.60
2022-09-05T11:53:58.122Z,2.40
2022-09-05T11:56:51.943Z,2.77
2022-09-05T12:00:18.580Z,2.50
2022-09-05T12:04:03.697Z,2.33
2022-09-05T12:10:47.151Z,2.60
2022-09-05T12:13:49.192Z,2.80
2022-09-05T12:16:55.293Z,2.50
2022-09-05T12:19:48.698Z,2.20
2022-09-05T12:22:37.329Z,2.45
2022-09-05T12:27:40.468Z,2.40
2022-09-05T12:29:32.768Z,2.53
2022-09-05T12:33:47.891Z,2.63
2022-09-05T12:36:10.695Z,2.40
2022-09-05T12:41:23.723Z,2.40
2022-09-05T12:42:10.884Z,2.42
2022-09-05T12:42:13.870Z,2.33
2022-09-05T12:45:13.002Z,2.27
2022-09-05T12:48:01.373Z,2.20
2022-09-05T12:51:00.021Z,2.33
2022-09-05T12:53:50.700Z,2.30
2022-09-05T13:02:34.822Z,2.40
2022-09-05T13:03:05.819Z,2.17
2022-09-05T13:03:26.817Z,2.17
2022-09-05T13:06:25.195Z,2.47
2022-09-05T13:09:16.496Z,2.40
2022-09-05T13:14:55.595Z,2.53
2022-09-05T13:15:36.209Z,2.37
2022-09-05T13:18:23.882Z,2.55
2022-09-05T13:21:23.158Z,2.33
2022-09-05T13:24:23.058Z,2.25
2022-09-05T13:27:34.501Z,2.50
2022-09-05T13:32:18.289Z,2.20
2022-09-05T13:38:14.030Z,2.10
2022-09-05T13:38:16.289Z,2.30
2022-09-05T13:40:23.013Z,2.35
2022-09-05T13:43:21.892Z,2.10
2022-09-05T13:46:57.453Z,2.27
2022-09-05T13:49:53.634Z,2.38
2022-09-05T13:52:47.139Z,2.28
2022-09-05T13:55:54.044Z,2.20
2022-09-05T13:58:56.439Z,2.30
2022-09-05T14:02:26.396Z,2.27
2022-09-05T14:05:32.500Z,2.30
2022-09-05T14:08:46.068Z,2.38
2022-09-05T14:11:45.401Z,2.40
2022-09-05T14:17:56.662Z,2.20
2022-09-05T14:21:08.806Z,2.45
2022-09-05T14:24:27.825Z,1.90
2022-09-05T14:27:26.405Z,2.08
2022-09-05T14:33:01.032Z,2.20
2022-09-05T14:37:51.085Z,1.90
2022-09-05T14:38:15.365Z,2.15
2022-09-05T14:41:28.690Z,2.20
2022-09-05T14:44:44.042Z,2.17
2022-09-05T14:47:53.023Z,2.15
2022-09-05T14:50:59.638Z,2.20
2022-09-05T14:54:01.920Z,2.20
2022-09-05T15:02:41.843Z,2.08
2022-09-05T15:02:49.657Z,2.08
2022-09-05T15:07:01.577Z,2.03
2022-09-05T15:12:14.426Z,2.15
2022-09-05T15:13:11.380Z,2.03
2022-09-05T15:16:06.641Z,2.22
2022-09-05T15:18:53.260Z,1.98
2022-09-05T15:21:41.166Z,2.20
2022-09-05T15:24:31.046Z,1.92
2022-09-05T15:27:16.676Z,2.05
2022-09-05T15:30:02.419Z,1.90
2022-09-05T15:32:50.638Z,2.00
2022-09-05T15:35:42.399Z,1.90
2022-09-05T15:38:55.665Z,1.88
2022-09-05T15:41:43.436Z,1.85
2022-09-05T15:44:43.362Z,1.85
2022-09-05T15:47:44.206Z,2.13
2022-09-05T15:50:41.611Z,2.07
2022-09-05T15:53:38.416Z,2.20
2022-09-05T15:56:25.079Z,1.75
2022-09-05T15:59:11.503Z,1.90
2022-09-05T16:01:59.158Z,1.92
2022-09-05T16:10:27.088Z,2.03
2022-09-05T16:10:48.889Z,1.98
2022-09-05T16:14:48.623Z,2.00
2022-09-05T16:23:20.087Z,2.00
2022-09-05T16:23:32.897Z,2.10
2022-09-05T16:24:24.797Z,2.22
2022-09-05T16:27:43.504Z,2.20
2022-09-05T16:30:35.348Z,2.17
2022-09-05T16:33:25.190Z,2.03
2022-09-05T16:36:35.117Z,1.93
2022-09-05T16:39:25.021Z,2.00
2022-09-05T16:42:46.200Z,2.17
2022-09-05T16:45:32.647Z,2.22
2022-09-05T16:48:43.605Z,2.05
2022-09-05T16:51:36.269Z,2.00
2022-09-05T16:54:32.058Z,1.80
2022-09-05T16:57:22.124Z,2.10
2022-09-05T17:00:08.818Z,2.20
2022-09-05T17:03:04.778Z,1.92
2022-09-05T17:05:55.884Z,2.50
2022-09-05T17:08:41.386Z,2.13
2022-09-05T17:11:29.440Z,2.13
2022-09-05T17:14:21.101Z,2.05
2022-09-05T17:18:04.606Z,2.00
2022-09-05T17:20:22.248Z,2.13
2022-09-05T17:29:19.470Z,2.00
2022-09-05T17:29:33.145Z,2.00
2022-09-05T17:32:59.543Z,2.22
2022-09-05T17:36:04.066Z,2.20
2022-09-05T17:39:16.536Z,2.00
2022-09-05T17:42:32.214Z,1.92
2022-09-05T17:45:25.577Z,2.15
2022-09-05T17:48:46.156Z,2.00
2022-09-05T17:51:52.042Z,2.20
2022-09-05T17:54:37.685Z,2.10
2022-09-05T17:57:36.758Z,2.00
2022-09-05T18:00:58.188Z,2.15
2022-09-05T18:03:45.826Z,2.03
2022-09-05T18:06:39.990Z,2.20
2022-09-05T18:09:35.265Z,2.20
2022-09-05T18:13:13.487Z,2.03
2022-09-05T18:15:34.052Z,2.28
2022-09-05T18:19:05.061Z,2.03
2022-09-05T18:21:49.604Z,1.87
2022-09-05T18:24:41.051Z,2.30
2022-09-05T18:28:04.820Z,2.22
2022-09-05T18:30:51.853Z,2.50
2022-09-05T18:33:55.541Z,2.00
2022-09-05T18:36:44.038Z,2.27
2022-09-05T18:39:29.767Z,2.30
2022-09-05T18:42:25.903Z,2.20
2022-09-05T18:45:28.421Z,2.30
2022-09-05T18:48:29.767Z,2.17
2022-09-05T18:51:25.837Z,2.10
2022-09-05T18:54:20.659Z,2.38
2022-09-05T18:57:28.348Z,2.08
2022-09-05T19:00:43.882Z,2.28
2022-09-05T19:03:35.865Z,2.22
2022-09-05T19:06:36.168Z,2.40
2022-09-05T19:09:33.765Z,1.90
2022-09-05T19:12:35.043Z,1.90
2022-09-05T19:16:21.083Z,2.25
2022-09-05T19:19:24.473Z,1.85
2022-09-05T19:23:08.776Z,2.10
2022-09-05T19:25:23.843Z,2.30
2022-09-05T19:34:53.125Z,2.10
2022-09-05T19:36:52.295Z,2.10
2022-09-05T19:36:53.253Z,2.10
2022-09-05T19:37:51.214Z,1.90
2022-09-05T19:47:30.902Z,2.03
2022-09-05T19:47:38.919Z,1.98
2022-09-05T19:47:49.755Z,2.08
2022-09-05T19:50:13.399Z,2.30
2022-09-05T19:53:07.668Z,1.90
2022-09-05T19:55:53.821Z,2.00
2022-09-05T19:58:42.250Z,1.80
2022-09-05T20:01:28.771Z,2.38
2022-09-05T20:04:18.643Z,2.20
2022-09-05T20:07:16.784Z,2.13
2022-09-05T20:10:03.998Z,1.92
2022-09-05T20:12:49.445Z,2.10
2022-09-05T20:15:36.667Z,2.15
2022-09-05T20:18:28.098Z,1.90
2022-09-05T20:21:30.392Z,2.20
2022-09-05T20:24:17.044Z,1.90
2022-09-05T20:27:02.515Z,2.00
2022-09-05T20:29:59.018Z,2.00
2022-09-05T20:32:54.041Z,1.70
2022-09-05T20:43:08.337Z,2.00
2022-09-05T20:43:15.053Z,2.10
2022-09-05T20:43:20.648Z,1.85
2022-09-05T20:45:07.315Z,1.90
2022-09-05T20:54:12.529Z,2.00
2022-09-05T20:54:18.231Z,2.10
2022-09-05T20:54:31.620Z,2.10
2022-09-05T20:57:29.121Z,2.15
2022-09-05T21:00:19.718Z,2.05
2022-09-05T21:03:08.632Z,1.90
2022-09-05T21:05:55.720Z,1.90
2022-09-05T21:08:41.128Z,2.00
2022-09-05T21:11:32.611Z,2.05
2022-09-05T21:14:22.686Z,2.30
2022-09-05T21:17:15.006Z,2.00
2022-09-05T21:20:08.691Z,2.10
2022-09-05T21:22:53.953Z,2.20
2022-09-05T21:25:58.224Z,2.20
2022-09-05T21:29:03.407Z,2.30
2022-09-05T21:31:54.691Z,2.08
2022-09-05T21:34:47.217Z,2.30
2022-09-05T21:37:32.628Z,2.30
2022-09-05T21:40:17.939Z,1.90
2022-09-05T21:47:35.420Z,1.98
2022-09-05T21:47:43.655Z,1.88
2022-09-05T21:49:15.269Z,2.13
2022-09-05T21:52:00.726Z,2.33
2022-09-05T21:59:17.233Z,2.45
2022-09-05T21:59:20.587Z,2.25
2022-09-05T22:00:58.896Z,2.20
2022-09-05T22:03:44.570Z,1.97
2022-09-05T22:06:34.056Z,2.00
2022-09-05T22:09:21.583Z,2.50
2022-09-05T22:12:30.254Z,2.65
2022-09-05T22:15:27.695Z,2.47
2022-09-05T22:18:17.777Z,2.87
2022-09-05T22:21:33.885Z,2.53
2022-09-05T22:24:12.126Z,2.58
2022-09-05T22:27:12.646Z,2.50
2022-09-05T22:29:58.311Z,2.58
2022-09-05T22:32:43.903Z,2.90
2022-09-05T22:35:29.135Z,2.95
2022-09-05T22:38:20.315Z,2.67
2022-09-05T22:41:06.031Z,2.83
2022-09-05T22:43:51.427Z,2.70
2022-09-05T22:46:36.297Z,3.00
2022-09-05T22:49:21.731Z,2.40
2022-09-05T22:52:08.454Z,3.13
2022-09-05T22:54:53.248Z,2.53
2022-09-05T22:57:39.155Z,2.60
2022-09-05T23:46:22.209Z,2.78
2022-09-05T23:49:08.375Z,2.70
2022-09-05T23:51:54.999Z,2.85
2022-09-05T23:54:43.955Z,2.40
2022-09-05T23:57:28.987Z,2.60
